createdAt,value
2019-01-17T00:02:34.532Z,1.54
2019-01-17T00:05:25.315Z,1.54
2019-01-17T00:08:15.400Z,1.57
2019-01-17T00:11:01.908Z,1.35
2019-01-17T00:14:01.242Z,1.41
2019-01-17T00:16:40.408Z,1.41
2019-01-17T00:19:32.678Z,1.39
2019-01-17T00:22:17.793Z,1.43
2019-01-17T00:25:06.549Z,1.42
2019-01-17T00:27:59.610Z,1.47
2019-01-17T00:30:45.767Z,1.41
2019-01-17T00:33:38.725Z,1.39
2019-01-17T00:36:23.124Z,1.27
2019-01-17T00:39:14.760Z,1.36
2019-01-17T00:42:03.801Z,1.34
2019-01-17T00:44:56.641Z,1.39
2019-01-17T00:47:45.282Z,1.35
2019-01-17T00:50:34.342Z,1.40
2019-01-17T00:53:23.471Z,1.30
2019-01-17T00:56:12.121Z,1.29
2019-01-17T00:59:01.073Z,1.29
2019-01-17T01:01:49.760Z,1.25
2019-01-17T01:04:40.090Z,1.25
2019-01-17T01:07:39.441Z,1.23
2019-01-17T01:10:39.649Z,1.13
2019-01-17T01:13:35.809Z,1.17
2019-01-17T01:16:25.803Z,1.16
2019-01-17T01:19:11.355Z,1.22
2019-01-17T01:22:05.994Z,1.20
2019-01-17T01:24:55.131Z,1.24
2019-01-17T01:27:54.350Z,1.18
2019-01-17T01:30:53.393Z,1.21
2019-01-17T01:33:46.531Z,1.21
2019-01-17T01:36:35.396Z,1.28
2019-01-17T01:39:26.753Z,1.27
2019-01-17T01:42:13.447Z,1.23
2019-01-17T01:45:03.633Z,1.23
2019-01-17T01:47:47.862Z,1.25
2019-01-17T01:50:32.172Z,1.25
2019-01-17T01:53:05.619Z,1.20
2019-01-17T01:55:37.651Z,1.33
2019-01-17T01:58:09.142Z,1.31
2019-01-17T02:00:40.737Z,1.36
2019-01-17T02:03:12.255Z,1.38
2019-01-17T02:05:43.680Z,1.41
2019-01-17T02:08:15.180Z,1.42
2019-01-17T02:10:46.516Z,1.57
2019-01-17T02:13:18.407Z,1.63
2019-01-17T02:15:53.437Z,1.58
2019-01-17T02:18:25.007Z,1.49
2019-01-17T02:20:56.360Z,1.55
2019-01-17T02:23:27.770Z,1.49
2019-01-17T02:25:59.149Z,1.47
2019-01-17T02:28:30.569Z,1.49
2019-01-17T02:31:01.931Z,1.45
2019-01-17T02:33:33.362Z,1.40
2019-01-17T02:36:04.856Z,1.39
2019-01-17T02:38:36.320Z,1.41
2019-01-17T02:41:07.832Z,1.42
2019-01-17T02:43:39.234Z,1.47
2019-01-17T02:46:10.663Z,1.55
2019-01-17T02:48:42.076Z,1.55
2019-01-17T02:51:13.364Z,1.53
2019-01-17T02:53:44.769Z,1.47
2019-01-17T02:56:16.133Z,1.49
2019-01-17T02:58:47.528Z,1.41
2019-01-17T03:01:19.046Z,1.42
2019-01-17T03:03:50.584Z,1.40
2019-01-17T03:06:22.025Z,1.49
2019-01-17T03:08:53.423Z,1.48
2019-01-17T03:11:24.965Z,1.49
2019-01-17T03:13:57.516Z,1.45
2019-01-17T03:16:28.908Z,1.48
2019-01-17T03:19:00.283Z,1.50
2019-01-17T03:21:31.540Z,1.60
2019-01-17T03:24:02.916Z,1.63
2019-01-17T03:26:34.352Z,1.68
2019-01-17T03:29:05.772Z,1.74
2019-01-17T03:31:37.200Z,1.75
2019-01-17T03:34:08.746Z,1.82
2019-01-17T03:36:40.140Z,1.81
2019-01-17T03:39:11.584Z,1.82
2019-01-17T03:41:43.007Z,1.79
2019-01-17T03:44:14.416Z,1.78
2019-01-17T03:46:45.818Z,1.79
2019-01-17T03:49:17.168Z,1.80
2019-01-17T03:51:48.686Z,1.74
2019-01-17T03:54:20.172Z,1.79
2019-01-17T03:56:51.792Z,1.78
2019-01-17T03:59:23.269Z,1.73
2019-01-17T04:01:54.807Z,1.70
2019-01-17T04:04:26.211Z,1.74
2019-01-17T04:06:57.626Z,1.72
2019-01-17T04:09:28.918Z,1.75
2019-01-17T04:12:00.352Z,1.70
2019-01-17T04:14:31.718Z,1.68
2019-01-17T04:17:03.025Z,1.64
2019-01-17T04:19:34.393Z,1.66
2019-01-17T04:22:05.737Z,1.75
2019-01-17T04:24:41.534Z,1.70
2019-01-17T04:27:15.397Z,1.67
2019-01-17T04:29:46.805Z,1.64
2019-01-17T04:32:18.002Z,1.66
2019-01-17T04:34:49.430Z,1.67
2019-01-17T04:37:20.802Z,1.65
2019-01-17T04:39:52.386Z,1.65
2019-01-17T04:42:23.835Z,1.71
2019-01-17T04:44:55.161Z,1.72
2019-01-17T04:47:26.661Z,1.72
2019-01-17T04:49:58.021Z,1.70
2019-01-17T04:52:29.357Z,1.68
2019-01-17T04:55:04.988Z,1.64
2019-01-17T04:57:33.840Z,1.62
2019-01-17T05:00:06.523Z,1.49
2019-01-17T05:02:37.895Z,1.32
2019-01-17T05:05:10.686Z,1.22
2019-01-17T05:07:42.127Z,1.11
2019-01-17T05:10:13.946Z,1.08
2019-01-17T05:12:45.332Z,0.99
2019-01-17T05:15:16.711Z,0.90
2019-01-17T05:17:47.993Z,0.96
2019-01-17T05:20:19.481Z,0.97
2019-01-17T05:22:50.699Z,0.90
2019-01-17T05:25:22.161Z,0.81
2019-01-17T05:27:53.500Z,0.77
2019-01-17T05:30:24.973Z,0.72
2019-01-17T05:32:56.414Z,0.66
2019-01-17T05:35:27.912Z,0.66
2019-01-17T05:37:59.388Z,0.60
2019-01-17T05:40:30.799Z,0.62
2019-01-17T05:43:02.250Z,0.61
2019-01-17T05:45:33.761Z,0.73
2019-01-17T05:48:05.239Z,0.78
2019-01-17T05:50:36.712Z,0.84
2019-01-17T05:53:08.200Z,0.76
2019-01-17T05:55:39.606Z,0.81
2019-01-17T05:58:11.058Z,0.90
2019-01-17T06:00:42.587Z,0.94
2019-01-17T06:03:14.011Z,0.99
2019-01-17T06:05:45.426Z,1.04
2019-01-17T06:08:16.820Z,1.08
2019-01-17T06:10:48.226Z,1.12
2019-01-17T06:13:20.951Z,1.23
2019-01-17T06:15:52.539Z,1.29
2019-01-17T06:18:24.020Z,1.44
2019-01-17T06:20:55.500Z,1.53
2019-01-17T06:23:27.038Z,1.68
2019-01-17T06:25:58.498Z,1.76
2019-01-17T06:28:30.002Z,1.90
2019-01-17T06:31:01.349Z,2.01
2019-01-17T06:33:32.869Z,2.05
2019-01-17T06:36:04.397Z,2.13
2019-01-17T06:38:35.833Z,2.17
2019-01-17T06:41:07.229Z,2.29
2019-01-17T06:43:38.631Z,2.38
2019-01-17T06:46:10.191Z,2.48
2019-01-17T06:48:41.653Z,2.58
2019-01-17T06:51:13.107Z,2.69
2019-01-17T06:53:44.544Z,2.71
2019-01-17T06:56:15.906Z,2.77
2019-01-17T06:58:47.241Z,2.75
2019-01-17T07:01:18.668Z,2.69
2019-01-17T07:03:49.980Z,2.72
2019-01-17T07:06:21.490Z,2.70
2019-01-17T07:08:52.935Z,2.82
2019-01-17T07:11:24.284Z,2.90
2019-01-17T07:13:55.612Z,3.00
2019-01-17T07:16:27.080Z,3.16
2019-01-17T07:18:58.821Z,3.24
2019-01-17T07:21:30.220Z,3.30
2019-01-17T07:24:01.629Z,3.49
2019-01-17T07:26:33.164Z,3.49
2019-01-17T07:29:05.004Z,3.66
2019-01-17T07:31:36.408Z,3.78
2019-01-17T07:34:07.850Z,3.96
2019-01-17T07:36:39.342Z,4.07
2019-01-17T07:39:10.847Z,4.13
2019-01-17T07:41:42.296Z,4.18
2019-01-17T07:44:13.761Z,4.12
2019-01-17T07:46:45.300Z,4.24
2019-01-17T07:49:16.866Z,4.31
2019-01-17T07:51:48.548Z,4.35
2019-01-17T07:54:20.044Z,4.39
2019-01-17T07:56:51.667Z,4.45
2019-01-17T07:59:23.092Z,4.49
2019-01-17T08:01:54.459Z,4.56
2019-01-17T08:04:25.883Z,4.63
2019-01-17T08:06:57.318Z,4.72
2019-01-17T08:09:28.860Z,4.73
2019-01-17T08:12:05.015Z,4.84
2019-01-17T08:14:33.467Z,4.91
2019-01-17T08:17:05.120Z,4.93
2019-01-17T08:19:36.595Z,5.00
2019-01-17T08:22:08.302Z,5.05
2019-01-17T08:24:39.858Z,5.20
2019-01-17T08:27:11.970Z,5.20
2019-01-17T08:29:43.344Z,5.25
2019-01-17T08:32:14.750Z,5.36
2019-01-17T08:34:46.987Z,5.45
2019-01-17T08:37:18.401Z,5.54
2019-01-17T08:39:49.697Z,5.71
2019-01-17T08:42:21.222Z,5.88
2019-01-17T08:44:52.586Z,5.97
2019-01-17T08:47:23.986Z,6.11
2019-01-17T08:49:56.618Z,6.34
2019-01-17T08:52:28.391Z,6.45
2019-01-17T08:54:59.911Z,6.86
2019-01-17T08:57:31.295Z,7.14
2019-01-17T09:00:02.611Z,7.27
2019-01-17T09:02:34.050Z,7.24
2019-01-17T09:05:06.102Z,7.60
2019-01-17T09:07:37.517Z,7.35
2019-01-17T09:10:10.841Z,7.27
2019-01-17T09:12:42.248Z,7.49
2019-01-17T09:15:15.078Z,7.39
2019-01-17T09:17:46.585Z,7.42
2019-01-17T09:20:17.984Z,7.48
2019-01-17T09:22:49.581Z,7.50
2019-01-17T09:25:21.060Z,7.72
2019-01-17T09:27:52.462Z,8.14
2019-01-17T09:30:24.128Z,8.24
2019-01-17T09:32:55.656Z,8.40
2019-01-17T09:35:27.178Z,8.90
2019-01-17T09:37:59.902Z,8.71
2019-01-17T09:40:31.514Z,8.92
2019-01-17T09:43:02.998Z,9.20
2019-01-17T09:45:35.818Z,9.45
2019-01-17T09:48:07.340Z,9.69
2019-01-17T09:50:38.851Z,10.05
2019-01-17T09:53:10.328Z,10.11
2019-01-17T09:55:42.908Z,10.13
2019-01-17T09:58:14.558Z,10.19
2019-01-17T10:00:45.936Z,10.30
2019-01-17T10:03:17.390Z,10.34
2019-01-17T10:05:48.956Z,10.62
2019-01-17T10:08:20.377Z,10.86
2019-01-17T10:10:51.774Z,10.66
2019-01-17T10:13:23.180Z,10.92
2019-01-17T10:16:25.508Z,11.29
2019-01-17T10:19:33.035Z,11.22
2019-01-17T10:22:57.194Z,11.44
2019-01-17T10:25:59.568Z,11.27
2019-01-17T10:29:06.772Z,11.50
2019-01-17T10:32:10.343Z,11.40
2019-01-17T10:35:05.784Z,11.53
2019-01-17T10:38:00.284Z,11.60
2019-01-17T10:41:23.960Z,12.05
2019-01-17T10:44:47.831Z,12.01
2019-01-17T10:48:09.211Z,11.86
2019-01-17T10:51:25.858Z,12.01
2019-01-17T10:54:13.242Z,12.00
2019-01-17T10:57:07.829Z,11.93
2019-01-17T10:59:58.402Z,12.17
2019-01-17T11:02:45.799Z,11.92
2019-01-17T11:05:38.262Z,11.88
2019-01-17T11:08:27.840Z,11.88
2019-01-17T11:11:21.940Z,11.87
2019-01-17T11:14:31.500Z,11.80
2019-01-17T11:17:37.777Z,11.97
2019-01-17T11:21:01.708Z,11.59
2019-01-17T11:24:00.994Z,11.91
2019-01-17T11:27:21.870Z,11.92
2019-01-17T11:30:13.601Z,10.83
2019-01-17T11:33:18.630Z,10.42
2019-01-17T11:36:26.143Z,9.75
2019-01-17T11:39:21.057Z,9.96
2019-01-17T11:42:47.848Z,10.20
2019-01-17T11:46:02.561Z,10.20
2019-01-17T11:49:01.901Z,10.31
2019-01-17T11:52:10.033Z,10.13
2019-01-17T11:55:21.896Z,10.06
2019-01-17T11:58:19.740Z,9.74
2019-01-17T12:01:39.025Z,9.64
2019-01-17T12:04:38.258Z,9.50
2019-01-17T12:07:15.516Z,9.37
2019-01-17T12:09:46.905Z,9.31
2019-01-17T12:12:23.412Z,9.29
2019-01-17T12:14:58.109Z,9.30
2019-01-17T12:17:29.453Z,9.23
2019-01-17T12:20:00.866Z,9.15
2019-01-17T12:22:32.214Z,9.17
2019-01-17T12:25:03.582Z,9.15
2019-01-17T12:27:35.072Z,9.16
2019-01-17T12:30:09.992Z,9.10
2019-01-17T12:32:41.335Z,9.16
2019-01-17T12:35:13.443Z,9.16
2019-01-17T12:37:44.754Z,9.17
2019-01-17T12:40:16.936Z,9.16
2019-01-17T12:42:49.290Z,9.21
2019-01-17T12:45:20.732Z,9.27
2019-01-17T12:47:52.069Z,9.28
2019-01-17T12:50:23.562Z,9.24
2019-01-17T12:52:55.088Z,9.30
2019-01-17T12:55:26.640Z,9.30
2019-01-17T12:57:58.030Z,9.33
2019-01-17T13:00:29.398Z,9.29
2019-01-17T13:03:00.837Z,9.29
2019-01-17T13:05:32.345Z,9.21
2019-01-17T13:08:03.798Z,9.11
2019-01-17T13:10:35.311Z,9.08
2019-01-17T13:13:06.766Z,9.02
2019-01-17T13:15:38.371Z,8.95
2019-01-17T13:18:09.871Z,8.94
2019-01-17T13:20:41.412Z,8.88
2019-01-17T13:23:12.901Z,8.84
2019-01-17T13:25:45.516Z,8.67
2019-01-17T13:28:16.883Z,8.33
2019-01-17T13:30:48.253Z,8.29
2019-01-17T13:33:20.986Z,8.07
2019-01-17T13:35:52.542Z,8.03
2019-01-17T13:38:24.037Z,7.90
2019-01-17T13:40:55.503Z,7.80
2019-01-17T13:43:26.968Z,7.66
2019-01-17T13:45:58.198Z,7.51
2019-01-17T13:48:29.593Z,7.44
2019-01-17T13:51:00.886Z,7.37
2019-01-17T13:53:32.302Z,7.39
2019-01-17T13:56:03.725Z,7.33
2019-01-17T13:58:35.214Z,7.19
2019-01-17T14:01:06.698Z,7.17
2019-01-17T14:03:38.120Z,7.13
2019-01-17T14:06:09.530Z,6.97
2019-01-17T14:08:41.087Z,6.98
2019-01-17T14:11:12.497Z,6.91
2019-01-17T14:13:43.953Z,6.92
2019-01-17T14:16:17.272Z,6.78
2019-01-17T14:18:48.736Z,6.73
2019-01-17T14:21:25.417Z,6.68
2019-01-17T14:23:54.642Z,6.62
2019-01-17T14:26:26.058Z,6.53
2019-01-17T14:28:57.532Z,6.49
2019-01-17T14:31:29.097Z,6.34
2019-01-17T14:34:00.718Z,6.23
2019-01-17T14:36:32.279Z,6.12
2019-01-17T14:39:03.954Z,5.97
2019-01-17T14:41:35.464Z,5.82
2019-01-17T14:44:06.956Z,5.66
2019-01-17T14:46:47.240Z,5.62
2019-01-17T14:49:21.198Z,5.64
2019-01-17T14:51:52.707Z,5.58
2019-01-17T14:54:24.171Z,5.54
2019-01-17T14:56:55.501Z,5.51
2019-01-17T14:59:26.955Z,5.43
2019-01-17T15:01:58.251Z,5.42
2019-01-17T15:04:29.663Z,5.34
2019-01-17T15:07:01.040Z,5.22
2019-01-17T15:09:32.475Z,5.07
2019-01-17T15:12:03.969Z,5.05
2019-01-17T15:14:35.485Z,5.04
2019-01-17T15:17:06.929Z,4.96
2019-01-17T15:19:38.506Z,4.90
2019-01-17T15:22:09.988Z,4.96
2019-01-17T15:24:41.475Z,4.85
2019-01-17T15:27:12.963Z,4.88
2019-01-17T15:29:44.436Z,4.80
2019-01-17T15:32:16.035Z,4.55
2019-01-17T15:34:47.423Z,4.50
2019-01-17T15:37:18.971Z,4.48
2019-01-17T15:39:50.354Z,4.45
2019-01-17T15:42:21.864Z,4.39
2019-01-17T15:44:53.365Z,4.33
2019-01-17T15:47:24.841Z,4.27
2019-01-17T15:49:56.232Z,4.28
2019-01-17T15:52:27.632Z,4.34
2019-01-17T15:54:59.211Z,4.29
2019-01-17T15:57:34.031Z,4.36
2019-01-17T16:00:04.460Z,4.45
2019-01-17T16:02:35.911Z,4.51
2019-01-17T16:05:07.431Z,4.52
2019-01-17T16:07:38.829Z,4.41
2019-01-17T16:10:11.295Z,4.52
2019-01-17T16:12:42.672Z,4.76
2019-01-17T16:15:17.029Z,4.95
2019-01-17T16:17:48.452Z,5.13
2019-01-17T16:20:19.986Z,5.27
2019-01-17T16:22:51.576Z,5.42
2019-01-17T16:25:23.030Z,5.54
2019-01-17T16:27:54.465Z,5.58
2019-01-17T16:30:30.992Z,5.59
2019-01-17T16:33:02.373Z,5.57
2019-01-17T16:35:33.697Z,5.58
2019-01-17T16:38:05.229Z,5.57
2019-01-17T16:40:36.575Z,5.56
2019-01-17T16:43:07.952Z,5.50
2019-01-17T16:45:39.265Z,5.51
2019-01-17T16:48:10.719Z,5.52
2019-01-17T16:50:42.205Z,5.56
2019-01-17T16:53:13.654Z,5.55
2019-01-17T16:55:44.977Z,5.54
2019-01-17T16:58:16.405Z,5.55
2019-01-17T17:00:48.526Z,5.49
2019-01-17T17:03:19.916Z,5.47
2019-01-17T17:05:51.373Z,5.49
2019-01-17T17:08:22.975Z,5.41
2019-01-17T17:10:54.408Z,5.39
2019-01-17T17:13:25.713Z,5.40
2019-01-17T17:15:57.150Z,5.39
2019-01-17T17:18:28.540Z,5.38
2019-01-17T17:21:00.053Z,5.37
2019-01-17T17:23:31.410Z,5.36
2019-01-17T17:26:03.066Z,5.35
2019-01-17T17:28:34.494Z,5.32
2019-01-17T17:31:06.008Z,5.25
2019-01-17T17:33:37.339Z,5.26
2019-01-17T17:36:09.931Z,5.27
2019-01-17T17:38:42.639Z,5.24
2019-01-17T17:41:14.121Z,5.18
2019-01-17T17:43:45.566Z,5.18
2019-01-17T17:46:17.088Z,5.19
2019-01-17T17:48:48.462Z,5.22
2019-01-17T17:51:19.862Z,5.15
2019-01-17T17:53:51.311Z,5.12
2019-01-17T17:56:22.747Z,5.07
2019-01-17T17:58:54.283Z,5.08
2019-01-17T18:01:29.431Z,5.01
2019-01-17T18:04:01.339Z,4.98
2019-01-17T18:06:32.828Z,4.95
2019-01-17T18:09:05.579Z,4.91
2019-01-17T18:11:37.451Z,4.91
2019-01-17T18:14:08.941Z,4.85
2019-01-17T18:16:40.440Z,4.83
2019-01-17T18:19:11.882Z,4.81
2019-01-17T18:21:43.311Z,4.75
2019-01-17T18:24:14.771Z,4.83
2019-01-17T18:26:46.330Z,4.73
2019-01-17T18:29:17.902Z,4.76
2019-01-17T18:31:49.517Z,4.74
2019-01-17T18:34:21.038Z,4.68
2019-01-17T18:36:52.525Z,4.59
2019-01-17T18:39:23.888Z,4.57
2019-01-17T18:41:55.281Z,4.56
2019-01-17T18:44:26.714Z,4.53
2019-01-17T18:46:58.167Z,4.59
2019-01-17T18:49:29.588Z,4.62
2019-01-17T18:52:01.050Z,4.58
2019-01-17T18:54:32.529Z,4.61
2019-01-17T18:57:03.949Z,4.64
2019-01-17T18:59:35.398Z,4.58
2019-01-17T19:02:07.440Z,4.60
2019-01-17T19:04:38.890Z,4.60
2019-01-17T19:07:10.367Z,4.51
2019-01-17T19:09:41.829Z,4.50
2019-01-17T19:12:13.358Z,4.50
2019-01-17T19:14:44.759Z,4.47
2019-01-17T19:17:16.214Z,4.43
2019-01-17T19:19:47.591Z,4.41
2019-01-17T19:22:19.070Z,4.38
2019-01-17T19:24:50.531Z,4.40
2019-01-17T19:27:22.017Z,4.34
2019-01-17T19:29:53.492Z,4.29
2019-01-17T19:32:25.010Z,4.35
2019-01-17T19:34:56.464Z,4.33
2019-01-17T19:37:27.909Z,4.29
2019-01-17T19:39:59.377Z,4.25
2019-01-17T19:42:30.835Z,4.22
2019-01-17T19:45:02.380Z,4.27
2019-01-17T19:47:33.839Z,4.22
2019-01-17T19:50:06.741Z,4.25
2019-01-17T19:52:38.141Z,4.29
2019-01-17T19:55:09.879Z,4.29
2019-01-17T19:57:41.314Z,4.21
2019-01-17T20:00:14.423Z,4.20
2019-01-17T20:02:46.011Z,4.21
2019-01-17T20:05:19.079Z,4.13
2019-01-17T20:08:01.539Z,4.13
2019-01-17T20:10:35.207Z,4.09
2019-01-17T20:13:07.136Z,4.17
2019-01-17T20:15:38.868Z,4.10
2019-01-17T20:18:10.542Z,4.06
2019-01-17T20:20:43.332Z,4.00
2019-01-17T20:23:14.699Z,3.97
2019-01-17T20:25:46.076Z,3.99
2019-01-17T20:28:17.385Z,4.07
2019-01-17T20:30:48.929Z,4.16
2019-01-17T20:33:20.382Z,4.16
2019-01-17T20:35:51.981Z,4.08
2019-01-17T20:38:24.033Z,4.18
2019-01-17T20:40:58.231Z,4.20
2019-01-17T20:43:28.432Z,4.27
2019-01-17T20:46:01.095Z,4.26
2019-01-17T20:48:32.519Z,4.30
2019-01-17T20:51:04.082Z,4.33
2019-01-17T20:53:35.634Z,4.25
2019-01-17T20:56:07.146Z,4.28
2019-01-17T20:58:42.280Z,4.28
2019-01-17T21:01:49.639Z,4.30
2019-01-17T21:04:22.460Z,4.35
2019-01-17T21:06:53.952Z,4.44
2019-01-17T21:09:26.882Z,4.35
2019-01-17T21:11:59.043Z,4.36
2019-01-17T21:14:34.039Z,4.28
2019-01-17T21:17:54.743Z,4.28
2019-01-17T21:21:02.530Z,4.21
2019-01-17T21:23:50.510Z,4.22
2019-01-17T21:26:31.537Z,4.22
2019-01-17T21:29:43.848Z,4.26
2019-01-17T21:32:27.504Z,4.23
2019-01-17T21:35:15.001Z,4.21
2019-01-17T21:41:12.002Z,4.11
2019-01-17T21:43:43.921Z,4.13
2019-01-17T21:46:15.401Z,4.10
2019-01-17T21:48:46.852Z,4.10
2019-01-17T21:51:18.234Z,4.12
2019-01-17T21:53:49.744Z,4.02
2019-01-17T21:56:21.107Z,4.11
2019-01-17T21:58:55.975Z,4.13
2019-01-17T22:01:25.579Z,4.20
2019-01-17T22:03:57.052Z,4.13
2019-01-17T22:06:28.040Z,4.18
2019-01-17T22:09:16.144Z,4.21
2019-01-17T22:11:48.301Z,4.17
2019-01-17T22:14:19.890Z,4.17
2019-01-17T22:16:51.645Z,4.21
2019-01-17T22:19:24.157Z,4.20
2019-01-17T22:21:56.417Z,4.26
2019-01-17T22:24:29.875Z,4.27
2019-01-17T22:27:01.500Z,4.28
2019-01-17T22:29:34.169Z,4.25
2019-01-17T22:32:05.553Z,4.19
2019-01-17T22:34:42.073Z,4.20
2019-01-17T22:37:26.734Z,4.16
2019-01-17T22:40:42.287Z,4.13
2019-01-17T22:43:14.812Z,4.13
2019-01-17T22:45:46.297Z,4.11
2019-01-17T22:48:17.802Z,4.09
2019-01-17T22:50:49.290Z,4.09
2019-01-17T22:53:22.063Z,4.12
2019-01-17T22:55:53.995Z,4.13
2019-01-17T22:58:25.670Z,4.19
2019-01-17T23:01:20.403Z,4.27
2019-01-17T23:03:54.062Z,4.25
2019-01-17T23:06:25.607Z,4.27
2019-01-17T23:08:56.956Z,4.24
2019-01-17T23:11:29.583Z,4.27
2019-01-17T23:14:01.297Z,4.31
2019-01-17T23:16:32.764Z,4.32
2019-01-17T23:19:04.288Z,4.31
2019-01-17T23:21:35.536Z,4.36
2019-01-17T23:24:07.000Z,4.37
2019-01-17T23:26:38.450Z,4.37
2019-01-17T23:29:15.807Z,4.43
2019-01-17T23:31:42.880Z,4.40
2019-01-17T23:34:14.179Z,4.42
2019-01-17T23:36:48.824Z,4.37
2019-01-17T23:39:18.751Z,4.44
2019-01-17T23:41:50.195Z,4.42
2019-01-17T23:44:21.631Z,4.45
2019-01-17T23:46:53.171Z,4.37
2019-01-17T23:49:24.624Z,4.30
2019-01-17T23:51:56.060Z,4.34
2019-01-17T23:54:27.430Z,4.29
2019-01-17T23:56:58.843Z,4.29
2019-01-17T23:59:30.452Z,4.31
